createdAt,value
2023-04-22T00:00:59.078Z,13.40
2023-04-22T00:03:46.490Z,14.80
2023-04-22T00:06:21.123Z,13.20
2023-04-22T00:09:02.724Z,14.10
2023-04-22T00:11:31.473Z,13.10
2023-04-22T00:14:00.070Z,13.20
2023-04-22T00:16:31.724Z,13.60
2023-04-22T00:19:08.816Z,16.90
2023-04-22T00:21:55.114Z,15.30
2023-04-22T00:24:31.899Z,14.00
2023-04-22T00:27:08.931Z,14.50
2023-04-22T00:29:49.032Z,14.60
2023-04-22T00:32:28.093Z,15.00
2023-04-22T00:35:07.480Z,15.60
2023-04-22T00:37:48.491Z,20.40
2023-04-22T00:40:23.390Z,16.90
2023-04-22T00:43:06.103Z,16.70
2023-04-22T00:45:38.257Z,16.00
2023-04-22T00:48:16.704Z,19.30
2023-04-22T00:50:48.146Z,18.30
2023-04-22T00:53:17.337Z,17.50
2023-04-22T00:55:51.767Z,16.30
2023-04-22T00:58:25.145Z,15.50
2023-04-22T01:01:02.921Z,16.60
2023-04-22T01:03:33.411Z,16.40
2023-04-22T01:06:10.313Z,18.00
2023-04-22T01:08:48.075Z,16.20
2023-04-22T01:11:16.961Z,15.90
2023-04-22T01:13:49.113Z,23.50
2023-04-22T01:16:22.398Z,19.40
2023-04-22T01:18:54.510Z,20.60
2023-04-22T01:21:26.847Z,14.90
2023-04-22T01:23:58.511Z,15.20
2023-04-22T01:26:32.314Z,14.60
2023-04-22T01:29:16.157Z,14.90
2023-04-22T01:31:53.717Z,18.10
2023-04-22T01:34:32.474Z,23.00
2023-04-22T01:37:07.460Z,17.70
2023-04-22T01:39:36.534Z,18.10
2023-04-22T01:42:11.425Z,19.80
2023-04-22T01:44:44.319Z,16.70
2023-04-22T01:47:15.564Z,17.80
2023-04-22T01:49:46.966Z,15.70
2023-04-22T01:52:18.374Z,17.20
2023-04-22T01:54:57.563Z,20.40
2023-04-22T01:57:39.162Z,16.10
2023-04-22T02:00:22.306Z,14.50
2023-04-22T02:02:54.599Z,15.30
2023-04-22T02:05:32.720Z,17.30
2023-04-22T02:08:37.501Z,15.00
2023-04-22T02:11:08.348Z,15.80
2023-04-22T02:13:47.377Z,15.10
2023-04-22T02:16:25.812Z,15.80
2023-04-22T02:19:02.473Z,14.50
2023-04-22T02:21:35.354Z,16.20
2023-04-22T02:24:12.951Z,17.80
2023-04-22T02:26:45.122Z,22.10
2023-04-22T02:29:19.303Z,17.30
2023-04-22T02:31:48.822Z,20.30
2023-04-22T02:34:22.438Z,16.10
2023-04-22T02:36:57.307Z,21.50
2023-04-22T02:39:26.560Z,21.00
2023-04-22T02:41:55.400Z,21.60
2023-04-22T02:44:33.054Z,18.70
2023-04-22T02:47:04.160Z,19.10
2023-04-22T02:49:36.930Z,20.10
2023-04-22T02:52:11.800Z,18.80
2023-04-22T02:55:09.272Z,15.80
2023-04-22T02:57:41.419Z,17.90
2023-04-22T03:00:10.972Z,18.50
2023-04-22T03:02:40.340Z,19.40
2023-04-22T03:05:18.896Z,18.70
2023-04-22T03:07:51.951Z,19.20
2023-04-22T03:10:24.098Z,15.90
2023-04-22T03:12:56.502Z,16.00
2023-04-22T03:15:25.276Z,17.20
2023-04-22T03:17:57.830Z,15.60
2023-04-22T03:20:32.784Z,18.30
2023-04-22T03:23:01.591Z,18.00
2023-04-22T03:25:42.451Z,20.80
2023-04-22T03:28:13.610Z,21.80
2023-04-22T03:30:50.576Z,20.20
2023-04-22T03:33:31.760Z,18.60
2023-04-22T03:36:08.423Z,17.80
2023-04-22T03:38:40.488Z,16.80
2023-04-22T03:41:16.455Z,21.00
2023-04-22T03:43:51.037Z,19.20
2023-04-22T03:46:24.099Z,19.60
2023-04-22T03:49:09.248Z,19.00
2023-04-22T03:51:45.601Z,17.10
2023-04-22T03:54:40.120Z,14.90
2023-04-22T03:57:20.657Z,13.50
2023-04-22T04:00:03.067Z,11.70
2023-04-22T04:02:34.742Z,18.50
2023-04-22T04:05:06.650Z,16.50
2023-04-22T04:07:39.221Z,14.90
2023-04-22T04:10:09.300Z,14.60
2023-04-22T04:12:38.568Z,14.40
2023-04-22T04:15:15.375Z,15.60
2023-04-22T04:17:49.078Z,15.60
2023-04-22T04:20:22.143Z,14.50
2023-04-22T04:22:52.158Z,17.40
2023-04-22T04:25:26.788Z,17.00
2023-04-22T04:28:01.829Z,16.00
2023-04-22T04:30:37.279Z,16.60
2023-04-22T04:33:27.290Z,17.30
2023-04-22T04:36:04.436Z,19.40
2023-04-22T04:38:40.716Z,19.60
2023-04-22T04:41:22.581Z,19.40
2023-04-22T04:44:15.031Z,17.60
2023-04-22T04:46:52.636Z,18.30
2023-04-22T04:49:43.946Z,20.20
2023-04-22T04:52:13.042Z,17.40
2023-04-22T04:54:47.976Z,19.50
2023-04-22T04:57:21.579Z,18.10
2023-04-22T04:59:53.328Z,18.70
2023-04-22T05:02:28.952Z,20.50
2023-04-22T05:05:06.782Z,20.20
2023-04-22T05:07:36.382Z,19.90
2023-04-22T05:10:08.598Z,18.20
2023-04-22T05:12:41.658Z,19.70
2023-04-22T05:15:14.734Z,20.10
2023-04-22T05:17:44.214Z,22.20
2023-04-22T05:20:13.658Z,21.00
2023-04-22T05:22:45.094Z,22.40
2023-04-22T05:25:16.854Z,24.50
2023-04-22T05:27:53.747Z,20.80
2023-04-22T05:30:22.737Z,21.90
2023-04-22T05:32:51.570Z,20.70
2023-04-22T05:35:20.959Z,23.70
2023-04-22T05:37:53.001Z,22.60
2023-04-22T05:40:22.990Z,21.60
2023-04-22T05:42:57.539Z,20.80
2023-04-22T05:45:27.577Z,25.00
2023-04-22T05:48:00.901Z,21.90
2023-04-22T05:50:33.013Z,23.50
2023-04-22T05:53:10.925Z,21.60
2023-04-22T05:55:45.766Z,25.90
2023-04-22T05:58:15.054Z,22.20
2023-04-22T06:00:51.956Z,22.90
2023-04-22T06:03:40.028Z,23.30
2023-04-22T06:06:12.642Z,21.80
2023-04-22T06:08:50.962Z,22.20
2023-04-22T06:11:19.757Z,23.70
2023-04-22T06:13:51.564Z,23.40
2023-04-22T06:16:23.456Z,25.40
2023-04-22T06:18:52.315Z,24.20
2023-04-22T06:21:22.560Z,21.90
2023-04-22T06:24:00.153Z,23.10
2023-04-22T06:26:29.384Z,20.40
2023-04-22T06:28:58.460Z,22.60
2023-04-22T06:31:29.822Z,24.30
2023-04-22T06:33:59.504Z,21.20
2023-04-22T06:36:30.465Z,20.30
2023-04-22T06:39:02.901Z,23.10
2023-04-22T06:41:47.195Z,20.80
2023-04-22T06:44:32.455Z,20.90
2023-04-22T06:47:25.539Z,23.00
2023-04-22T06:50:02.549Z,20.30
2023-04-22T06:52:38.165Z,16.10
2023-04-22T06:55:07.538Z,17.90
2023-04-22T06:57:36.538Z,16.60
2023-04-22T07:00:08.830Z,15.80
2023-04-22T07:02:42.086Z,16.30
2023-04-22T07:05:11.022Z,19.10
2023-04-22T07:07:40.732Z,16.40
2023-04-22T07:10:11.496Z,16.60
2023-04-22T07:12:43.392Z,16.80
2023-04-22T07:15:12.492Z,15.90
2023-04-22T07:17:41.420Z,16.20
2023-04-22T07:20:10.928Z,17.10
2023-04-22T07:22:39.583Z,17.30
2023-04-22T07:25:09.141Z,17.90
2023-04-22T07:27:38.702Z,16.90
2023-04-22T07:30:08.863Z,16.20
2023-04-22T07:32:39.329Z,17.00
2023-04-22T07:35:08.826Z,19.00
2023-04-22T07:37:37.939Z,14.00
2023-04-22T07:40:12.134Z,17.60
2023-04-22T07:42:42.661Z,17.20
2023-04-22T07:45:11.899Z,16.10
2023-04-22T07:47:40.618Z,18.60
2023-04-22T07:50:09.880Z,17.50
2023-04-22T07:52:38.771Z,16.20
2023-04-22T07:55:08.467Z,18.80
2023-04-22T07:57:40.241Z,18.40
2023-04-22T08:00:10.321Z,16.00
2023-04-22T08:02:43.697Z,16.60
2023-04-22T08:05:14.356Z,16.40
2023-04-22T08:07:46.690Z,16.10
2023-04-22T08:10:19.353Z,16.50
2023-04-22T08:12:48.424Z,15.50
2023-04-22T08:15:17.328Z,17.80
2023-04-22T08:17:46.249Z,15.20
2023-04-22T08:20:16.621Z,16.80
2023-04-22T08:22:45.940Z,16.10
2023-04-22T08:25:14.626Z,14.60
2023-04-22T08:27:43.099Z,17.00
2023-04-22T08:30:12.458Z,13.40
2023-04-22T08:32:41.535Z,14.70
2023-04-22T08:35:10.402Z,14.80
2023-04-22T08:37:41.114Z,13.90
2023-04-22T08:40:10.142Z,13.60
2023-04-22T08:42:39.604Z,14.00
2023-04-22T08:45:10.011Z,17.90
2023-04-22T08:47:40.754Z,18.00
2023-04-22T08:50:09.899Z,14.90
2023-04-22T08:52:38.545Z,14.20
2023-04-22T08:55:07.461Z,15.90
2023-04-22T08:57:40.605Z,14.80
2023-04-22T09:00:10.336Z,15.70
2023-04-22T09:02:45.216Z,14.00
2023-04-22T09:05:15.201Z,12.20
2023-04-22T09:07:44.106Z,13.30
2023-04-22T09:10:12.369Z,16.40
2023-04-22T09:12:44.750Z,13.90
2023-04-22T09:15:13.656Z,13.00
2023-04-22T09:17:43.616Z,15.00
2023-04-22T09:20:13.171Z,13.50
2023-04-22T09:22:51.021Z,13.00
2023-04-22T09:25:20.409Z,14.00
2023-04-22T09:27:59.625Z,13.30
2023-04-22T09:30:29.359Z,10.70
2023-04-22T09:33:01.053Z,12.90
2023-04-22T09:35:31.987Z,11.70
2023-04-22T09:38:02.651Z,13.50
2023-04-22T09:40:32.650Z,15.10
2023-04-22T09:43:04.106Z,13.40
2023-04-22T09:46:21.353Z,10.10
2023-04-22T09:49:00.126Z,10.30
2023-04-22T09:51:30.922Z,10.50
2023-04-22T09:54:09.301Z,7.90
2023-04-22T09:56:52.270Z,8.50
2023-04-22T09:59:26.227Z,8.30
2023-04-22T10:02:00.777Z,9.20
2023-04-22T10:04:30.136Z,9.40
2023-04-22T10:06:59.934Z,8.60
2023-04-22T10:09:29.045Z,9.20
2023-04-22T10:12:01.486Z,8.50
2023-04-22T10:14:29.827Z,8.70
2023-04-22T10:17:02.478Z,10.40
2023-04-22T10:19:33.140Z,6.50
2023-04-22T10:22:04.150Z,9.40
2023-04-22T10:24:37.684Z,7.40
2023-04-22T10:27:07.064Z,7.00
2023-04-22T10:29:40.889Z,7.10
2023-04-22T10:32:18.824Z,7.10
2023-04-22T10:34:48.643Z,8.00
2023-04-22T10:37:21.855Z,7.90
2023-04-22T10:40:16.764Z,7.80
2023-04-22T10:42:53.048Z,7.20
2023-04-22T10:45:26.015Z,6.20
2023-04-22T10:47:54.510Z,8.00
2023-04-22T10:50:28.478Z,7.80
2023-04-22T10:52:59.261Z,6.80
2023-04-22T10:55:52.003Z,7.80
2023-04-22T10:58:22.033Z,8.50
2023-04-22T11:00:58.256Z,8.00
2023-04-22T11:03:30.178Z,8.20
2023-04-22T11:06:18.896Z,9.50
2023-04-22T11:08:49.091Z,12.30
2023-04-22T11:11:19.009Z,7.60
2023-04-22T11:13:51.022Z,6.00
2023-04-22T11:16:22.913Z,6.90
2023-04-22T11:18:51.462Z,6.50
2023-04-22T11:21:20.850Z,7.00
2023-04-22T11:23:56.498Z,6.90
2023-04-22T11:26:37.822Z,7.80
2023-04-22T11:29:07.094Z,6.20
2023-04-22T11:31:35.949Z,5.60
2023-04-22T11:34:04.254Z,7.00
2023-04-22T11:36:32.631Z,6.60
2023-04-22T11:39:01.206Z,7.30
2023-04-22T11:41:30.509Z,8.30
2023-04-22T11:44:01.859Z,8.00
2023-04-22T11:46:32.044Z,14.70
2023-04-22T11:49:16.648Z,6.60
2023-04-22T11:51:56.096Z,6.60
2023-04-22T11:54:38.065Z,7.40
2023-04-22T11:57:08.669Z,5.40
2023-04-22T11:59:38.120Z,7.50
2023-04-22T12:02:08.026Z,7.00
2023-04-22T12:04:41.105Z,8.60
2023-04-22T12:07:09.695Z,6.60
2023-04-22T12:09:39.903Z,6.30
2023-04-22T12:12:08.808Z,7.50
2023-04-22T12:14:38.022Z,6.80
2023-04-22T12:17:10.896Z,7.70
2023-04-22T12:19:40.025Z,8.30
2023-04-22T12:22:09.104Z,7.30
2023-04-22T12:24:37.671Z,7.90
2023-04-22T12:27:06.725Z,8.10
2023-04-22T12:29:35.554Z,8.50
2023-04-22T12:32:04.138Z,7.40
2023-04-22T12:34:33.152Z,7.10
2023-04-22T12:37:01.820Z,8.50
2023-04-22T12:39:41.082Z,9.30
2023-04-22T12:42:19.741Z,7.10
2023-04-22T12:44:48.148Z,8.00
2023-04-22T12:47:18.375Z,7.70
2023-04-22T12:49:47.678Z,7.80
2023-04-22T12:52:16.363Z,8.00
2023-04-22T12:54:45.362Z,6.70
2023-04-22T12:57:14.038Z,5.80
2023-04-22T12:59:42.832Z,6.30
2023-04-22T13:02:11.743Z,7.10
2023-04-22T13:04:41.135Z,8.20
2023-04-22T13:07:09.754Z,5.90
2023-04-22T13:09:39.051Z,5.60
2023-04-22T13:12:07.579Z,6.90
2023-04-22T13:14:35.859Z,6.50
2023-04-22T13:17:04.465Z,7.40
2023-04-22T13:19:35.577Z,7.60
2023-04-22T13:22:04.601Z,6.90
2023-04-22T13:24:33.113Z,7.90
2023-04-22T13:27:02.940Z,5.80
2023-04-22T13:29:31.251Z,7.60
2023-04-22T13:31:59.724Z,5.90
2023-04-22T13:34:28.109Z,5.70
2023-04-22T13:36:57.836Z,6.50
2023-04-22T13:39:26.789Z,6.70
2023-04-22T13:41:55.922Z,6.00
2023-04-22T13:44:24.715Z,6.30
2023-04-22T13:46:53.210Z,6.10
2023-04-22T13:49:21.573Z,5.50
2023-04-22T13:51:50.371Z,7.40
2023-04-22T13:54:19.243Z,4.10
2023-04-22T13:56:47.745Z,7.10
2023-04-22T13:59:16.916Z,5.60
2023-04-22T14:01:45.372Z,5.30
2023-04-22T14:04:14.120Z,5.20
2023-04-22T14:06:42.788Z,4.50
2023-04-22T14:09:11.450Z,5.50
2023-04-22T14:11:39.877Z,8.00
2023-04-22T14:14:08.326Z,5.80
2023-04-22T14:16:36.931Z,5.40
2023-04-22T14:19:06.424Z,4.50
2023-04-22T14:21:35.010Z,6.10
2023-04-22T14:24:03.785Z,9.80
2023-04-22T14:26:32.894Z,7.30
2023-04-22T14:29:01.364Z,5.40
2023-04-22T14:31:29.909Z,7.60
2023-04-22T14:33:58.831Z,5.20
2023-04-22T14:36:28.045Z,5.70
2023-04-22T14:38:56.733Z,6.70
2023-04-22T14:41:25.506Z,7.20
2023-04-22T14:43:54.212Z,5.30
2023-04-22T14:46:23.028Z,5.80
2023-04-22T14:48:51.875Z,5.50
2023-04-22T14:51:20.362Z,5.90
2023-04-22T14:53:49.269Z,5.30
2023-04-22T14:56:17.734Z,5.60
2023-04-22T14:58:46.018Z,6.30
2023-04-22T15:01:14.645Z,6.90
2023-04-22T15:03:44.254Z,5.80
2023-04-22T15:06:12.979Z,6.70
2023-04-22T15:08:41.251Z,6.00
2023-04-22T15:11:09.639Z,5.20
2023-04-22T15:13:38.733Z,6.90
2023-04-22T15:16:07.736Z,6.20
2023-04-22T15:18:36.500Z,6.00
2023-04-22T15:21:08.267Z,5.40
2023-04-22T15:23:36.922Z,5.60
2023-04-22T15:26:05.444Z,6.50
2023-04-22T15:28:34.126Z,6.00
2023-04-22T15:31:02.774Z,6.30
2023-04-22T15:33:31.299Z,5.80
2023-04-22T15:35:59.878Z,5.40
2023-04-22T15:38:28.148Z,6.80
2023-04-22T15:40:56.646Z,8.60
2023-04-22T15:43:25.017Z,10.90
2023-04-22T15:45:53.405Z,9.70
2023-04-22T15:48:22.174Z,8.30
2023-04-22T15:50:50.665Z,7.80
2023-04-22T15:53:19.148Z,5.90
2023-04-22T15:55:48.735Z,8.20
2023-04-22T15:58:17.092Z,6.40
2023-04-22T16:00:45.929Z,6.60
2023-04-22T16:03:14.862Z,6.40
2023-04-22T16:05:43.707Z,7.20
2023-04-22T16:08:13.717Z,5.80
2023-04-22T16:10:42.193Z,6.20
2023-04-22T16:13:11.303Z,7.90
2023-04-22T16:15:39.863Z,6.20
2023-04-22T16:18:08.412Z,5.30
2023-04-22T16:20:37.024Z,5.90
2023-04-22T16:23:05.579Z,6.20
2023-04-22T16:25:34.120Z,7.20
2023-04-22T16:28:02.609Z,5.50
2023-04-22T16:30:33.364Z,5.60
2023-04-22T16:33:02.141Z,6.00
2023-04-22T16:35:32.094Z,5.70
2023-04-22T16:38:00.911Z,7.80
2023-04-22T16:40:29.396Z,6.70
2023-04-22T16:43:03.337Z,6.80
2023-04-22T16:45:32.208Z,5.90
2023-04-22T16:48:00.915Z,6.10
2023-04-22T16:50:29.589Z,7.40
2023-04-22T16:52:58.470Z,5.70
2023-04-22T16:55:26.839Z,6.80
2023-04-22T16:57:55.526Z,7.10
2023-04-22T17:00:24.410Z,6.60
2023-04-22T17:02:53.051Z,7.30
2023-04-22T17:05:21.582Z,7.10
2023-04-22T17:07:50.014Z,12.40
2023-04-22T17:10:18.450Z,10.40
2023-04-22T17:12:47.690Z,8.50
2023-04-22T17:15:16.758Z,8.20
2023-04-22T17:17:45.106Z,7.80
2023-04-22T17:20:13.495Z,8.00
2023-04-22T17:22:42.071Z,6.90
2023-04-22T17:25:10.948Z,7.90
2023-04-22T17:27:39.870Z,6.90
2023-04-22T17:30:09.485Z,9.30
2023-04-22T17:32:38.202Z,7.50
2023-04-22T17:35:07.670Z,7.10
2023-04-22T17:37:36.772Z,7.70
2023-04-22T17:40:08.711Z,7.90
2023-04-22T17:42:45.700Z,8.10
2023-04-22T17:45:15.935Z,6.90
2023-04-22T17:47:45.054Z,8.10
2023-04-22T17:50:13.627Z,8.70
2023-04-22T17:52:42.399Z,8.80
2023-04-22T17:55:11.324Z,8.60
2023-04-22T17:57:40.174Z,9.50
2023-04-22T18:00:10.464Z,8.80
2023-04-22T18:02:41.765Z,8.50
2023-04-22T18:05:10.734Z,9.60
2023-04-22T18:07:40.050Z,11.70
2023-04-22T18:10:09.882Z,12.40
2023-04-22T18:12:39.431Z,10.70
2023-04-22T18:15:08.731Z,9.30
2023-04-22T18:17:37.392Z,14.80
2023-04-22T18:20:17.220Z,10.10
2023-04-22T18:22:49.653Z,10.70
2023-04-22T18:25:18.772Z,12.90
2023-04-22T18:27:48.065Z,10.30
2023-04-22T18:30:16.845Z,11.60
2023-04-22T18:32:46.381Z,11.10
2023-04-22T18:35:18.523Z,13.30
2023-04-22T18:37:47.780Z,13.10
2023-04-22T18:40:17.622Z,10.30
2023-04-22T18:42:48.155Z,10.60
2023-04-22T18:45:17.063Z,9.60
2023-04-22T18:47:47.485Z,10.10
2023-04-22T18:50:16.784Z,10.40
2023-04-22T18:52:45.458Z,11.30
2023-04-22T18:55:14.048Z,9.50
2023-04-22T18:57:43.672Z,10.60
2023-04-22T19:00:13.557Z,11.60
2023-04-22T19:02:42.635Z,10.50
2023-04-22T19:05:13.949Z,8.90
2023-04-22T19:07:44.936Z,12.60
2023-04-22T19:10:14.158Z,13.00
2023-04-22T19:12:44.203Z,10.60
2023-04-22T19:15:13.366Z,11.90
2023-04-22T19:17:43.322Z,11.40
2023-04-22T19:20:12.177Z,11.90
2023-04-22T19:22:40.858Z,11.80
2023-04-22T19:25:10.060Z,12.90
2023-04-22T19:27:38.954Z,11.90
2023-04-22T19:30:08.359Z,12.60
2023-04-22T19:32:37.197Z,12.30
2023-04-22T19:35:08.167Z,13.50
2023-04-22T19:37:37.083Z,12.90
2023-04-22T19:40:06.597Z,12.70
2023-04-22T19:42:35.578Z,12.60
2023-04-22T19:45:05.446Z,13.90
2023-04-22T19:47:34.532Z,13.30
2023-04-22T19:50:08.012Z,13.10
2023-04-22T19:52:37.415Z,14.30
2023-04-22T19:55:09.442Z,14.00
2023-04-22T19:57:42.185Z,13.50
2023-04-22T20:00:11.866Z,15.70
2023-04-22T20:02:44.192Z,13.90
2023-04-22T20:05:13.502Z,12.90
2023-04-22T20:07:43.939Z,15.00
2023-04-22T20:10:14.156Z,14.30
2023-04-22T20:12:44.282Z,15.60
2023-04-22T20:15:13.468Z,15.60
2023-04-22T20:17:42.753Z,20.90
2023-04-22T20:20:15.264Z,16.10
2023-04-22T20:22:46.093Z,15.70
2023-04-22T20:25:17.568Z,16.90
2023-04-22T20:27:46.263Z,14.50
2023-04-22T20:30:16.457Z,14.70
2023-04-22T20:32:45.945Z,15.60
2023-04-22T20:35:17.000Z,15.50
2023-04-22T20:37:48.080Z,15.70
2023-04-22T20:40:19.558Z,15.20
2023-04-22T20:42:48.780Z,16.10
2023-04-22T20:45:19.123Z,16.60
2023-04-22T20:47:53.881Z,14.60
2023-04-22T20:50:23.142Z,15.10
2023-04-22T20:52:53.329Z,15.50
2023-04-22T20:55:22.735Z,15.20
2023-04-22T20:57:51.668Z,14.10
2023-04-22T21:00:21.047Z,15.20
2023-04-22T21:02:51.495Z,16.60
2023-04-22T21:05:21.833Z,21.60
2023-04-22T21:07:55.434Z,17.20
2023-04-22T21:10:27.681Z,17.80
2023-04-22T21:13:06.094Z,21.30
2023-04-22T21:15:35.191Z,16.70
2023-04-22T21:18:08.603Z,19.20
2023-04-22T21:20:46.644Z,18.80
2023-04-22T21:23:16.450Z,14.50
2023-04-22T21:25:48.204Z,18.60
2023-04-22T21:28:17.878Z,15.30
2023-04-22T21:30:47.636Z,15.50
2023-04-22T21:33:16.470Z,16.30
2023-04-22T21:35:45.491Z,19.20
2023-04-22T21:38:16.731Z,15.90
2023-04-22T21:40:46.064Z,15.10
2023-04-22T21:43:17.878Z,16.60
2023-04-22T21:45:46.662Z,13.60
2023-04-22T21:48:18.252Z,16.60
2023-04-22T21:50:47.325Z,15.90
2023-04-22T21:53:19.481Z,16.40
2023-04-22T21:55:53.702Z,16.90
2023-04-22T21:58:22.575Z,16.20
2023-04-22T22:00:51.583Z,17.10
2023-04-22T22:03:24.211Z,17.80
2023-04-22T22:05:53.250Z,17.00
2023-04-22T22:08:22.441Z,16.80
2023-04-22T22:10:53.699Z,15.70
2023-04-22T22:13:22.712Z,13.60
2023-04-22T22:15:55.379Z,17.10
2023-04-22T22:18:24.667Z,15.20
2023-04-22T22:20:55.816Z,17.00
2023-04-22T22:23:27.527Z,18.10
2023-04-22T22:26:02.085Z,17.90
2023-04-22T22:28:30.814Z,17.90
2023-04-22T22:31:19.643Z,18.10
2023-04-22T22:33:51.702Z,19.00
2023-04-22T22:36:20.380Z,17.20
2023-04-22T22:38:52.357Z,17.50
2023-04-22T22:41:23.386Z,20.30
2023-04-22T22:43:54.933Z,18.00
2023-04-22T22:46:26.715Z,19.10
2023-04-22T22:48:55.902Z,18.10
2023-04-22T22:51:26.530Z,17.60
2023-04-22T22:53:55.240Z,17.50
2023-04-22T22:56:27.489Z,19.00
2023-04-22T22:58:58.492Z,20.90
2023-04-22T23:01:38.554Z,20.40
2023-04-22T23:04:09.904Z,18.70
2023-04-22T23:06:45.992Z,19.40
2023-04-22T23:09:19.994Z,20.30
2023-04-22T23:11:55.348Z,21.30
2023-04-22T23:14:27.580Z,20.70
2023-04-22T23:17:02.460Z,19.10
2023-04-22T23:19:33.891Z,20.80
2023-04-22T23:22:12.722Z,22.50
2023-04-22T23:24:51.847Z,19.00
2023-04-22T23:27:24.632Z,18.70
2023-04-22T23:30:07.361Z,18.80
2023-04-22T23:32:43.158Z,20.30
2023-04-22T23:35:14.190Z,20.30
2023-04-22T23:37:46.421Z,18.60
2023-04-22T23:40:24.004Z,17.70
2023-04-22T23:43:02.828Z,20.30
2023-04-22T23:45:41.903Z,20.70
2023-04-22T23:48:20.225Z,18.10
2023-04-22T23:50:55.404Z,18.40
2023-04-22T23:53:36.205Z,17.90
2023-04-22T23:56:10.894Z,20.40
2023-04-22T23:58:45.833Z,20.10
